Sugar Loaf, Idaho
Current Conditions -  °F | °C
As of 10:53 PM on Saturday 20 Dec 2014 (Local Time) from KJER Reporting Station
Light Rain Light Rain  
Wind Chill: 33°   Ceiling: 2400
Heat Index: 39°   Visibility: 7mi
Dew Point: 37°   Wind: 8mph
Humidity: 93%   Direction: 180°S
Pressure: 29.95"   Gusts: NA
Location:  42.7238°N, 114.338°W
Report Text: KJER 210553Z AUTO 18007KT 7SM -RA OVC024 04/03 A2995 RMK AO2 SLP155 P0005 60020 T00390028 10056 20033 57012
Loading
Personal Weather Stations






























Interactive Weather Map New forecast layout! Learn more

10-Day Weather Forecast

Advertisements
Track Severe Weather on mobile